Flight Track Log - Related Links

Times and Time Zones

All times are in EDT time to prevent confusion due to time zone crossing. See the SWA418 flight status page for this flight to view local times or setup timezone preferences in your user account.

Time Position Orientation Groundspeed Altitude Reporting Facility
EDT Latitude Longitude Course Direction KTS MPH feet Rate Location/Type
Fri 09:34:37 PM 29.6514 -95.2342 46° Northeast 231 266 2,200  Level Houston Center
Fri 09:35:12 PM 29.6844 -95.2383 354° North 255 293 3,600 2,563 Climbing Houston Center
Fri 09:36:13 PM 29.7564 -95.2425 357° North 256 295 6,300 2,803 Climbing Houston Center
Fri 09:37:14 PM 29.8419 -95.2439 359° North 297 342 9,300 2,459 Climbing Houston Center
Fri 09:38:15 PM 29.9286 -95.2456 359° North 310 357 11,300 2,262 Climbing Houston Center
Fri 09:39:16 PM 30.0258 -95.2094 18° North 362 417 13,900 2,361 Climbing Houston Center
Fri 09:40:17 PM 30.1200 -95.1528 27° Northeast 378 435 16,100 2,244 Climbing Houston Center
Fri 09:41:19 PM 30.2403 -95.0819 27° Northeast 401 461 18,500 2,049 Climbing Houston Center
Fri 09:42:20 PM 30.3458 -95.0172 28° Northeast 423 487 20,300 1,721 Climbing Houston Center
Fri 09:43:21 PM 30.4381 -94.9614 28° Northeast 433 498 22,000 1,869 Climbing Houston Center
Fri 09:44:22 PM 30.5694 -94.8825 27° Northeast 442 509 24,100 1,721 Climbing Houston Center
Fri 09:45:23 PM 30.6747 -94.8003 34° Northeast 453 521 25,500 1,328 Climbing Houston Center
Fri 09:46:24 PM 30.7817 -94.7164 34° Northeast 465 535 26,800 1,180 Climbing Houston Center
Fri 09:47:25 PM 30.8917 -94.6303 34° Northeast 478 550 27,900 1,131 Climbing Houston Center
Fri 09:48:26 PM 31.0036 -94.5444 33° Northeast 485 558 29,100 1,426 Climbing Houston Center
Fri 09:49:27 PM 31.1133 -94.4578 34° Northeast 484 557 30,800 1,279 Climbing Houston Center
Fri 09:50:28 PM 31.2242 -94.3728 33° Northeast 482 555 31,700 1,033 Climbing Houston Center
Fri 09:51:29 PM 31.3350 -94.2858 34° Northeast 484 557 32,900 1,328 Climbing Houston Center
Fri 09:52:30 PM 31.4667 -94.1833 34° Northeast 476 548 34,400 1,033 Climbing Houston Center
Fri 09:53:31 PM 31.5733 -94.0936 36° Northeast 473 544 35,000 295 Climbing Houston Center
Fri 09:54:32 PM 31.6628 -93.9733 49° Northeast 488 562 35,000  Level Houston Center
Fri 09:55:33 PM 31.7514 -93.8525 49° Northeast 490 564 35,000  Level Houston Center
Fri 09:56:34 PM 31.8350 -93.7369 50° Northeast 486 559 35,000  Level Houston Center
Fri 09:57:35 PM 31.9236 -93.6158 49° Northeast 485 558 35,000  Level Houston Center
Fri 09:58:36 PM 32.0117 -93.4936 50° Northeast 488 562 35,000  Level Houston Center
Fri 09:59:37 PM 32.0994 -93.3725 49° Northeast 485 558 35,000  Level Houston Center
Fri 10:00:38 PM 32.1878 -93.2497 50° Northeast 488 562 35,000  Level Houston Center
Fri 10:01:45 PM 32.2819 -93.1133 51° Northeast 496 571 35,000  Level Fort Worth Center
Fri 10:02:44 PM 32.3858 -92.9781 48° Northeast 476 548 35,000  Level Fort Worth Center
Fri 10:03:44 PM 32.4750 -92.8456 51° Northeast 488 562 35,000  Level Fort Worth Center
Fri 10:04:44 PM 32.5622 -92.7228 50° Northeast 488 562 35,000  Level Fort Worth Center
Fri 10:05:45 PM 32.6494 -92.6000 50° Northeast 488 562 35,000  Level Fort Worth Center
Fri 10:06:45 PM 32.7364 -92.4767 50° Northeast 488 562 35,000  Level Fort Worth Center
Fri 10:08:29 PM 32.8786 -92.2769 50° Northeast 500 575 35,000  Level Memphis Center
Fri 10:09:29 PM 32.9639 -92.1550 50° Northeast 485 558 35,000  Level Memphis Center
Fri 10:10:29 PM 33.0511 -92.0278 51° Northeast 485 558 35,000  Level Memphis Center
Fri 10:11:29 PM 33.1342 -91.9053 51° Northeast 479 551 35,000  Level Memphis Center
Fri 10:12:29 PM 33.2211 -91.7825 50° Northeast 479 551 35,000  Level Memphis Center
Fri 10:13:29 PM 33.3061 -91.6597 50° Northeast 474 545 35,000  Level Memphis Center
Fri 10:14:29 PM 33.3950 -91.5342 50° Northeast 474 545 35,000  Level Memphis Center
Fri 10:15:29 PM 33.4775 -91.4108 51° Northeast 474 545 35,000  Level Memphis Center
Fri 10:16:29 PM 33.5619 -91.2869 51° Northeast 474 545 35,000  Level Memphis Center
Fri 10:17:29 PM 33.6464 -91.1658 50° Northeast 469 540 35,000  Level Memphis Center
Fri 10:18:29 PM 33.7283 -91.0442 51° Northeast 469 540 35,000  Level Memphis Center
Fri 10:19:29 PM 33.8231 -90.9072 50° Northeast 469 540 35,000  Level Memphis Center
Fri 10:20:29 PM 33.9028 -90.7828 52° Northeast 464 534 35,000  Level Memphis Center
Fri 10:21:29 PM 33.9908 -90.6578 50° Northeast 469 540 35,000  Level Memphis Center
Fri 10:22:29 PM 34.0619 -90.5453 53° Northeast 469 540 35,000  Level Memphis Center
Fri 10:23:29 PM 34.1478 -90.4200 50° Northeast 469 540 35,000  Level Memphis Center
Fri 10:24:29 PM 34.2292 -90.2969 51° Northeast 469 540 35,000  Level Memphis Center
Fri 10:25:29 PM 34.3125 -90.1686 52° Northeast 469 540 35,000  Level Memphis Center
Fri 10:26:29 PM 34.3956 -90.0450 51° Northeast 469 540 35,000  Level Memphis Center
Fri 10:27:29 PM 34.4786 -89.9161 52° Northeast 469 540 35,000  Level Memphis Center
Fri 10:28:29 PM 34.5617 -89.7897 51° Northeast 469 540 35,000  Level Memphis Center
Fri 10:29:29 PM 34.6422 -89.6603 53° Northeast 469 540 35,000  Level Memphis Center
Fri 10:30:29 PM 34.7250 -89.5308 52° Northeast 474 545 35,000  Level Memphis Center
Fri 10:31:29 PM 34.8097 -89.4036 51° Northeast 479 551 35,000  Level Memphis Center
Fri 10:32:29 PM 34.8919 -89.2786 51° Northeast 479 551 35,000 -50 Level Memphis Center
Fri 10:33:29 PM 34.9722 -89.1558 51° Northeast 466 536 34,900 -550 Descending Memphis Center
Fri 10:34:29 PM 35.0544 -89.0303 51° Northeast 466 536 33,900 -1,000 Descending Memphis Center
Fri 10:35:29 PM 35.1447 -88.8919 51° Northeast 466 536 32,900 -950 Descending Memphis Center
Fri 10:36:29 PM 35.2244 -88.7633 53° Northeast 466 536 32,000 -950 Descending Memphis Center
Fri 10:37:29 PM 35.3042 -88.6372 52° Northeast 466 536 31,000 -950 Descending Memphis Center
Fri 10:38:29 PM 35.3836 -88.5081 53° Northeast 471 542 30,100 -950 Descending Memphis Center
Fri 10:39:29 PM 35.4589 -88.3917 52° Northeast 471 542 29,100 -950 Descending Memphis Center
Fri 10:40:29 PM 35.5403 -88.2647 52° Northeast 471 542 28,200 -950 Descending Memphis Center
Fri 10:41:29 PM 35.6175 -88.1403 53° Northeast 464 534 27,200 -1,600 Descending Memphis Center
Fri 10:42:29 PM 35.6669 -88.0011 66° East 452 520 25,000 -2,300 Descending Memphis Center
Fri 10:43:29 PM 35.7081 -87.8567 71° East 442 509 22,600 -2,350 Descending Memphis Center
Fri 10:44:29 PM 35.7511 -87.7222 68° East 424 488 20,300 -2,250 Descending Memphis Center
Fri 10:45:29 PM 35.7900 -87.5931 70° East 410 472 18,100 -2,200 Descending Memphis Center
Fri 10:46:29 PM 35.8308 -87.4714 67° East 388 447 15,900 -2,300 Descending Memphis Center
Fri 10:47:29 PM 35.8739 -87.3494 66° East 377 434 13,500 -2,300 Descending Memphis Center
Fri 10:48:29 PM 35.9208 -87.2247 65° Northeast 366 421 11,300 -1,700 Descending Memphis Center
Fri 10:49:29 PM 35.9597 -87.1156 66° East 361 415 10,100 -1,200 Descending Memphis Center
Fri 10:50:29 PM 35.9992 -87.0242 62° Northeast 323 372 8,900 -1,350 Descending Memphis Center
Fri 10:51:29 PM 36.0342 -86.9356 64° Northeast 294 338 7,400 -1,350 Descending Memphis Center
Fri 10:52:29 PM 36.0714 -86.8467 63° Northeast 289 333 6,200 -950 Descending Memphis Center
Fri 10:53:29 PM 36.1239 -86.7906 41° Northeast 254 292 5,500 -1,200 Descending Memphis Center
Fri 10:54:29 PM 36.1961 -86.7617 18° North 254 292 3,800 -1,250 Descending Memphis Center
Fri 10:55:29 PM 36.2636 -86.7225 25° Northeast 273 314 3,000 -550 Descending Memphis Center
Fri 10:56:29 PM 36.2489 -86.6461 103° East 193 222 2,700 -500 Descending Memphis Center
Fri 10:57:29 PM 36.1986 -86.6328 168° South 141 162 2,000 -800 Descending Memphis Center
Fri 10:58:29 PM 36.1572 -86.6500 199° South 146 168 1,100 -700 Descending Memphis Center
Fri 10:59:29 PM 36.1161 -86.6622 194° South 146 168 600 -500 Descending Memphis Center
Fri 11:01:00 PM 36.1167 -86.6667 211° Southwest  Level FlightAware Approximate
Fri 11:08:00 PM 36.1245 -86.6782 211° Southwest  Level Estimated
Fri 11:09:00 PM 36.1245 -86.6782 211° Southwest  Level Estimated
Fri 11:10:00 PM 36.1245 -86.6782 211° Southwest  Level Estimated
Fri 11:11:00 PM 36.1245 -86.6782 211° Southwest  Level Estimated
Fri 11:12:00 PM 36.1245 -86.6782 211° Southwest  Level Estimated
Fri 11:13:00 PM 36.1245 -86.6782 211° Southwest  Level Estimated
Fri 11:14:00 PM 36.1245 -86.6782 211° Southwest  Level Estimated
Fri 11:15:00 PM 36.1245 -86.6782 211° Southwest  Level Estimated

Login

Don't have an account? Register now (free) for customized features, flight alerts, and more!